createdAt,value
2018-05-12T00:01:01.522Z,62.45
2018-05-12T00:03:30.781Z,62.55
2018-05-12T00:06:00.031Z,62.39
2018-05-12T00:08:29.229Z,62.10
2018-05-12T00:10:58.546Z,61.72
2018-05-12T00:13:28.499Z,61.82
2018-05-12T00:15:57.713Z,61.77
2018-05-12T00:18:26.951Z,61.84
2018-05-12T00:20:56.506Z,62.06
2018-05-12T00:23:25.701Z,62.06
2018-05-12T00:25:54.979Z,62.11
2018-05-12T00:28:24.246Z,61.85
2018-05-12T00:30:53.477Z,62.28
2018-05-12T00:33:23.509Z,61.98
2018-05-12T00:35:52.847Z,62.04
2018-05-12T00:38:22.046Z,61.56
2018-05-12T00:40:51.328Z,62.09
2018-05-12T00:43:21.361Z,62.04
2018-05-12T00:45:50.650Z,62.21
2018-05-12T00:48:19.838Z,61.96
2018-05-12T00:50:49.083Z,61.90
2018-05-12T00:53:19.136Z,61.62
2018-05-12T00:55:49.125Z,61.75
2018-05-12T00:58:19.106Z,62.60
2018-05-12T01:00:48.320Z,62.28
2018-05-12T01:03:18.368Z,62.44
2018-05-12T01:05:48.360Z,62.63
2018-05-12T01:08:17.597Z,62.26
2018-05-12T01:10:46.878Z,62.68
2018-05-12T01:13:16.086Z,62.46
2018-05-12T01:15:45.333Z,62.74
2018-05-12T01:18:14.577Z,63.10
2018-05-12T01:20:44.545Z,63.10
2018-05-12T01:23:13.766Z,63.03
2018-05-12T01:25:43.747Z,63.32
2018-05-12T01:28:12.977Z,63.42
2018-05-12T01:30:42.171Z,63.42
2018-05-12T01:33:11.425Z,63.75
2018-05-12T01:35:40.813Z,63.46
2018-05-12T01:38:10.058Z,63.93
2018-05-12T01:40:39.300Z,63.73
2018-05-12T01:43:08.541Z,64.05
2018-05-12T01:45:37.747Z,63.96
2018-05-12T01:48:07.171Z,64.05
2018-05-12T01:50:36.586Z,63.75
2018-05-12T01:53:05.784Z,63.68
2018-05-12T01:55:35.748Z,64.22
2018-05-12T01:58:04.958Z,64.32
2018-05-12T02:00:34.450Z,64.48
2018-05-12T02:03:03.615Z,64.57
2018-05-12T02:05:32.845Z,64.34
2018-05-12T02:08:02.061Z,64.67
2018-05-12T02:10:31.280Z,64.32
2018-05-12T02:13:00.484Z,64.82
2018-05-12T02:15:29.726Z,64.98
2018-05-12T02:17:58.945Z,64.99
2018-05-12T02:20:28.188Z,65.06
2018-05-12T02:22:57.405Z,65.02
2018-05-12T02:25:26.708Z,64.97
2018-05-12T02:27:55.902Z,65.50
2018-05-12T02:30:25.207Z,65.74
2018-05-12T02:32:54.502Z,65.97
2018-05-12T02:35:23.698Z,66.06
2018-05-12T02:37:52.934Z,66.35
2018-05-12T02:40:22.364Z,66.59
2018-05-12T02:42:52.378Z,67.08
2018-05-12T02:45:21.681Z,67.82
2018-05-12T02:47:51.151Z,68.24
2018-05-12T02:50:20.370Z,68.08
2018-05-12T02:52:49.737Z,68.47
2018-05-12T02:55:19.129Z,68.69
2018-05-12T02:57:48.439Z,68.59
2018-05-12T03:00:17.639Z,68.68
2018-05-12T03:02:46.891Z,69.11
2018-05-12T03:05:16.123Z,69.21
2018-05-12T03:07:45.353Z,69.78
2018-05-12T03:10:14.610Z,70.06
2018-05-12T03:12:43.861Z,70.27
2018-05-12T03:15:13.079Z,70.36
2018-05-12T03:17:42.311Z,70.63
2018-05-12T03:20:11.705Z,70.99
2018-05-12T03:22:41.253Z,71.53
2018-05-12T03:25:10.505Z,71.82
2018-05-12T03:27:39.727Z,71.61
2018-05-12T03:30:08.990Z,71.72
2018-05-12T03:32:38.213Z,72.05
2018-05-12T03:35:07.438Z,72.07
2018-05-12T03:37:36.789Z,72.62
2018-05-12T03:40:05.998Z,72.76
2018-05-12T03:42:35.203Z,73.25
2018-05-12T03:45:04.968Z,73.61
2018-05-12T03:47:34.948Z,73.63
2018-05-12T03:50:04.151Z,74.08
2018-05-12T03:52:33.353Z,74.43
2018-05-12T03:55:02.573Z,74.48
2018-05-12T03:57:32.652Z,74.61
2018-05-12T04:00:01.829Z,74.71
2018-05-12T04:02:31.778Z,74.50
2018-05-12T04:05:18.577Z,74.47
2018-05-12T04:08:05.415Z,74.83
2018-05-12T04:24:06.863Z,74.63
2018-05-12T04:26:36.069Z,74.94
2018-05-12T04:29:05.482Z,75.62
2018-05-12T04:31:34.666Z,75.72
2018-05-12T04:34:04.272Z,75.95
2018-05-12T04:36:33.533Z,75.84
2018-05-12T04:39:02.914Z,75.84
2018-05-12T04:41:33.072Z,75.48
2018-05-12T04:44:02.311Z,76.15
2018-05-12T04:46:32.265Z,76.32
2018-05-12T04:49:01.478Z,76.14
2018-05-12T04:51:30.701Z,75.95
2018-05-12T04:54:00.693Z,75.49
2018-05-12T04:56:30.677Z,75.43
2018-05-12T04:58:59.932Z,74.89
2018-05-12T05:01:29.925Z,74.69
2018-05-12T05:03:59.213Z,74.57
2018-05-12T05:06:28.537Z,75.00
2018-05-12T05:08:57.843Z,74.57
2018-05-12T05:11:27.821Z,74.64
2018-05-12T05:13:57.056Z,74.52
2018-05-12T05:16:27.056Z,74.65
2018-05-12T05:18:56.303Z,74.40
2018-05-12T05:21:25.557Z,74.21
2018-05-12T05:23:54.978Z,74.17
2018-05-12T05:26:24.309Z,73.89
2018-05-12T05:28:53.506Z,73.28
2018-05-12T05:31:22.739Z,73.32
2018-05-12T05:33:52.018Z,73.06
2018-05-12T05:36:21.465Z,73.22
2018-05-12T05:38:51.487Z,72.92
2018-05-12T05:41:21.437Z,72.76
2018-05-12T05:43:50.802Z,72.42
2018-05-12T05:46:20.852Z,72.33
2018-05-12T05:48:50.123Z,71.42
2018-05-12T05:51:20.201Z,71.10
2018-05-12T05:53:49.452Z,71.40
2018-05-12T05:56:18.695Z,71.34
2018-05-12T05:58:47.902Z,70.93
2018-05-12T06:01:17.261Z,70.63
2018-05-12T06:03:46.584Z,70.71
2018-05-12T06:06:15.842Z,70.23
2018-05-12T06:08:45.058Z,69.75
2018-05-12T06:11:14.470Z,69.88
2018-05-12T06:13:43.690Z,68.84
2018-05-12T06:16:12.931Z,69.42
2018-05-12T06:18:42.162Z,68.33
2018-05-12T06:21:11.417Z,67.96
2018-05-12T06:23:40.612Z,66.80
2018-05-12T06:26:10.724Z,66.60
2018-05-12T06:28:40.712Z,66.83
2018-05-12T06:31:09.942Z,66.21
2018-05-12T06:33:40.809Z,66.56
2018-05-12T06:36:10.326Z,65.73
2018-05-12T06:38:40.286Z,64.81
2018-05-12T06:41:09.514Z,63.64
2018-05-12T06:43:39.503Z,63.29
2018-05-12T06:46:08.866Z,62.82
2018-05-12T06:48:38.112Z,62.02
2018-05-12T06:51:08.119Z,61.97
2018-05-12T06:53:37.462Z,61.95
2018-05-12T06:56:06.692Z,62.30
2018-05-12T06:58:35.908Z,62.16
2018-05-12T07:01:05.197Z,61.04
2018-05-12T07:03:34.463Z,61.23
2018-05-12T07:06:03.672Z,60.33
2018-05-12T07:08:32.935Z,58.73
2018-05-12T07:11:04.083Z,58.96
2018-05-12T07:13:35.207Z,59.82
2018-05-12T07:16:05.227Z,60.05
2018-05-12T07:18:34.474Z,59.37
2018-05-12T07:23:39.062Z,59.08
2018-05-12T07:26:09.221Z,58.75
2018-05-12T07:28:39.188Z,57.74
2018-05-12T07:31:09.218Z,56.88
2018-05-12T07:33:39.263Z,56.24
2018-05-12T07:36:09.221Z,56.09
2018-05-12T07:38:38.445Z,55.54
2018-05-12T07:41:08.432Z,55.33
2018-05-12T07:43:37.637Z,55.82
2018-05-12T07:46:06.901Z,55.48
2018-05-12T07:48:36.133Z,55.33
2018-05-12T07:51:05.403Z,55.27
2018-05-12T07:53:34.684Z,54.13
2018-05-12T07:56:04.665Z,53.38
2018-05-12T07:58:34.631Z,52.94
2018-05-12T08:01:03.858Z,53.25
2018-05-12T08:03:33.905Z,53.33
2018-05-12T08:06:03.055Z,52.02
2018-05-12T08:08:32.273Z,51.47
2018-05-12T08:11:01.482Z,51.68
2018-05-12T08:13:31.477Z,49.71
2018-05-12T08:16:00.831Z,49.52
2018-05-12T08:18:30.136Z,45.67
2018-05-12T08:21:00.113Z,45.61
2018-05-12T08:23:30.096Z,44.28
2018-05-12T08:25:59.336Z,44.03
2018-05-12T08:28:29.334Z,43.50
2018-05-12T08:30:58.569Z,43.26
2018-05-12T08:33:28.561Z,44.12
2018-05-12T08:35:58.602Z,42.04
2018-05-12T08:38:27.820Z,38.01
2018-05-12T08:40:57.040Z,37.45
2018-05-12T08:43:26.263Z,37.52
2018-05-12T08:45:56.266Z,38.99
2018-05-12T08:48:25.590Z,37.72
2018-05-12T08:50:54.830Z,35.28
2018-05-12T08:53:24.054Z,33.54
2018-05-12T08:55:53.264Z,35.50
2018-05-12T08:58:22.539Z,34.85
2018-05-12T09:00:53.799Z,31.58
2018-05-12T09:03:23.259Z,31.01
2018-05-12T09:05:52.468Z,30.81
2018-05-12T09:08:21.716Z,33.43
2018-05-12T09:10:50.895Z,31.94
2018-05-12T09:13:20.144Z,27.65
2018-05-12T09:15:49.353Z,29.52
2018-05-12T09:18:18.812Z,29.44
2018-05-12T09:20:48.826Z,30.52
2018-05-12T09:23:18.278Z,30.59
2018-05-12T09:25:47.504Z,32.86
2018-05-12T09:28:16.762Z,29.04
2018-05-12T09:30:47.878Z,30.21
2018-05-12T09:33:17.892Z,31.04
2018-05-12T09:35:48.046Z,31.40
2018-05-12T09:38:17.272Z,33.18
2018-05-12T09:40:46.557Z,30.05
2018-05-12T09:43:15.807Z,30.30
2018-05-12T09:45:45.091Z,31.02
2018-05-12T09:48:14.418Z,34.04
2018-05-12T09:50:43.701Z,35.23
2018-05-12T09:53:13.726Z,35.16
2018-05-12T09:55:42.970Z,35.91
2018-05-12T09:58:12.805Z,34.65
2018-05-12T10:00:42.069Z,35.83
2018-05-12T10:03:11.341Z,35.61
2018-05-12T10:05:41.314Z,36.15
2018-05-12T10:08:10.513Z,36.83
2018-05-12T10:10:39.853Z,36.20
2018-05-12T10:13:09.206Z,35.13
2018-05-12T10:15:38.500Z,35.01
2018-05-12T10:18:08.463Z,35.53
2018-05-12T10:20:38.465Z,34.05
2018-05-12T10:23:07.691Z,34.20
2018-05-12T10:25:37.030Z,35.66
2018-05-12T10:28:06.256Z,34.71
2018-05-12T10:30:35.726Z,34.29
2018-05-12T10:33:04.946Z,34.51
2018-05-12T10:35:34.555Z,35.65
2018-05-12T10:38:03.883Z,35.12
2018-05-12T10:40:33.226Z,36.17
2018-05-12T10:43:02.510Z,36.18
2018-05-12T10:45:31.808Z,36.86
2018-05-12T10:48:01.195Z,36.87
2018-05-12T10:50:32.812Z,37.07
2018-05-12T10:53:02.073Z,36.91
2018-05-12T10:55:31.317Z,38.02
2018-05-12T10:58:00.682Z,37.40
2018-05-12T11:00:30.012Z,36.99
2018-05-12T11:03:00.763Z,38.00
2018-05-12T11:05:30.762Z,36.84
2018-05-12T11:08:01.490Z,38.10
2018-05-12T11:10:30.884Z,38.53
2018-05-12T11:13:01.327Z,36.97
2018-05-12T11:15:30.558Z,37.89
2018-05-12T11:18:00.588Z,38.17
2018-05-12T11:20:29.808Z,37.71
2018-05-12T11:22:59.082Z,38.20
2018-05-12T11:25:28.404Z,38.20
2018-05-12T11:27:57.629Z,37.32
2018-05-12T11:30:26.828Z,37.28
2018-05-12T11:32:56.096Z,37.49
2018-05-12T11:35:25.452Z,37.71
2018-05-12T11:37:54.699Z,37.51
2018-05-12T11:40:24.303Z,37.29
2018-05-12T11:42:54.383Z,36.84
2018-05-12T11:45:24.422Z,35.58
2018-05-12T11:47:53.672Z,35.42
2018-05-12T11:50:23.727Z,36.78
2018-05-12T11:52:52.932Z,37.77
2018-05-12T11:55:22.196Z,37.84
2018-05-12T11:57:51.375Z,36.49
2018-05-12T12:00:20.577Z,36.10
2018-05-12T12:02:49.819Z,36.99
2018-05-12T12:05:19.027Z,36.68
2018-05-12T12:07:48.274Z,37.64
2018-05-12T12:10:17.473Z,38.26
2018-05-12T12:12:46.693Z,37.05
2018-05-12T12:15:16.690Z,36.35
2018-05-12T12:17:47.405Z,36.89
2018-05-12T12:20:16.789Z,37.19
2018-05-12T12:22:46.005Z,37.23
2018-05-12T12:25:16.169Z,39.44
2018-05-12T12:27:45.547Z,39.54
2018-05-12T12:30:15.537Z,39.14
2018-05-12T12:32:44.775Z,38.74
2018-05-12T12:35:14.216Z,37.78
2018-05-12T12:37:43.582Z,38.05
2018-05-12T12:40:12.857Z,37.97
2018-05-12T12:42:42.937Z,39.92
2018-05-12T12:45:12.181Z,39.58
2018-05-12T12:47:41.374Z,40.36
2018-05-12T12:50:11.461Z,39.97
2018-05-12T12:52:40.669Z,39.21
2018-05-12T12:55:09.888Z,40.54
2018-05-12T12:57:39.972Z,40.00
2018-05-12T13:00:09.181Z,39.35
2018-05-12T13:02:38.405Z,39.94
2018-05-12T13:05:09.306Z,38.92
2018-05-12T13:07:38.926Z,39.19
2018-05-12T13:10:08.158Z,40.46
2018-05-12T13:12:38.143Z,40.26
2018-05-12T13:15:07.475Z,40.43
2018-05-12T13:17:37.488Z,40.77
2018-05-12T13:20:07.531Z,40.66
2018-05-12T13:22:36.812Z,39.66
2018-05-12T13:25:06.782Z,39.71
2018-05-12T13:27:36.027Z,40.71
2018-05-12T13:30:06.008Z,40.77
2018-05-12T13:32:35.410Z,40.77
2018-05-12T13:35:04.677Z,40.16
2018-05-12T13:37:33.910Z,40.41
2018-05-12T13:40:03.163Z,39.97
2018-05-12T13:42:32.351Z,41.22
2018-05-12T13:45:01.582Z,40.78
2018-05-12T13:47:30.784Z,40.78
2018-05-12T13:50:00.044Z,39.81
2018-05-12T13:52:29.349Z,40.11
2018-05-12T13:54:58.694Z,40.18
2018-05-12T13:57:27.971Z,40.43
2018-05-12T13:59:57.403Z,42.01
2018-05-12T14:02:26.610Z,41.25
2018-05-12T14:04:56.695Z,40.79
2018-05-12T14:07:25.984Z,40.86
2018-05-12T14:09:55.922Z,41.40
2018-05-12T14:12:26.656Z,40.66
2018-05-12T14:14:56.264Z,40.51
2018-05-12T14:17:25.508Z,39.92
2018-05-12T14:19:54.784Z,40.38
2018-05-12T14:22:24.214Z,40.92
2018-05-12T14:24:53.482Z,40.40
2018-05-12T14:27:23.562Z,40.97
2018-05-12T14:29:52.773Z,40.27
2018-05-12T14:32:22.044Z,41.99
2018-05-12T14:34:51.278Z,41.53
2018-05-12T14:37:21.413Z,41.74
2018-05-12T14:39:51.435Z,40.95
2018-05-12T14:42:21.450Z,41.26
2018-05-12T14:44:50.654Z,40.90
2018-05-12T14:47:20.629Z,41.29
2018-05-12T14:49:49.829Z,42.43
2018-05-12T14:52:19.106Z,41.54
2018-05-12T14:54:48.392Z,41.99
2018-05-12T14:57:18.214Z,40.60
2018-05-12T14:59:47.479Z,41.74
2018-05-12T15:02:16.734Z,41.80
2018-05-12T15:04:45.938Z,41.90
2018-05-12T15:07:15.205Z,41.76
2018-05-12T15:09:44.431Z,41.69
2018-05-12T15:12:13.637Z,41.65
2018-05-12T15:14:42.878Z,41.95
2018-05-12T15:17:12.088Z,42.56
2018-05-12T15:19:41.318Z,41.48
2018-05-12T15:22:10.555Z,42.33
2018-05-12T15:24:40.575Z,41.90
2018-05-12T15:27:10.623Z,42.48
2018-05-12T15:29:40.024Z,42.62
2018-05-12T15:32:09.246Z,43.14
2018-05-12T15:34:38.445Z,41.73
2018-05-12T15:37:07.717Z,41.86
2018-05-12T15:39:36.923Z,42.46
2018-05-12T15:42:06.127Z,41.78
2018-05-12T15:44:35.441Z,41.06
2018-05-12T15:47:04.638Z,41.49
2018-05-12T15:49:33.882Z,41.67
2018-05-12T15:52:03.162Z,41.73
2018-05-12T15:54:33.166Z,41.65
2018-05-12T15:57:02.489Z,41.27
2018-05-12T15:59:31.733Z,41.29
2018-05-12T16:02:00.947Z,41.89
2018-05-12T16:04:30.166Z,40.97
2018-05-12T16:07:00.208Z,40.82
2018-05-12T16:09:30.394Z,41.36
2018-05-12T16:11:59.665Z,40.86
2018-05-12T16:14:28.964Z,41.62
2018-05-12T16:16:58.192Z,42.12
2018-05-12T16:19:27.398Z,42.64
2018-05-12T16:21:57.408Z,41.79
2018-05-12T16:24:26.632Z,41.14
2018-05-12T16:26:56.645Z,41.18
2018-05-12T16:29:26.070Z,41.63
2018-05-12T16:31:55.302Z,41.65
2018-05-12T16:34:24.528Z,42.62
2018-05-12T16:36:53.878Z,42.76
2018-05-12T16:39:23.092Z,42.77
2018-05-12T16:41:52.286Z,42.95
2018-05-12T16:44:21.580Z,41.93
2018-05-12T16:46:50.807Z,41.88
2018-05-12T16:49:20.029Z,42.72
2018-05-12T16:51:49.359Z,42.62
2018-05-12T16:54:19.322Z,43.07
2018-05-12T16:56:48.534Z,43.29
2018-05-12T16:59:18.616Z,43.52
2018-05-12T17:01:47.877Z,43.40
2018-05-12T17:04:17.129Z,43.93
2018-05-12T17:06:46.404Z,44.51
2018-05-12T17:09:15.754Z,43.57
2018-05-12T17:11:45.785Z,44.74
2018-05-12T17:14:15.015Z,44.19
2018-05-12T17:16:44.287Z,44.11
2018-05-12T17:19:14.447Z,44.38
2018-05-12T17:21:43.654Z,44.34
2018-05-12T17:24:12.973Z,44.53
2018-05-12T17:26:42.183Z,44.66
2018-05-12T17:29:12.241Z,44.89
2018-05-12T17:31:41.457Z,44.93
2018-05-12T17:34:10.754Z,44.97
2018-05-12T17:36:39.916Z,45.01
2018-05-12T17:39:09.157Z,45.53
2018-05-12T17:41:38.387Z,45.86
2018-05-12T17:44:08.489Z,45.91
2018-05-12T17:46:37.833Z,45.75
2018-05-12T17:49:07.094Z,46.00
2018-05-12T17:51:36.985Z,46.22
2018-05-12T17:54:06.298Z,46.58
2018-05-12T17:56:36.058Z,46.99
2018-05-12T17:59:05.363Z,46.49
2018-05-12T18:01:34.588Z,47.05
2018-05-12T18:04:03.874Z,46.94
2018-05-12T18:06:33.107Z,47.04
2018-05-12T18:09:02.341Z,47.33
2018-05-12T18:11:31.609Z,47.10
2018-05-12T18:14:00.854Z,47.81
2018-05-12T18:16:30.115Z,47.94
2018-05-12T18:19:00.133Z,47.66
2018-05-12T18:21:30.126Z,48.06
2018-05-12T18:23:59.336Z,48.03
2018-05-12T18:26:28.562Z,48.42
2018-05-12T18:28:57.812Z,48.65
2018-05-12T18:31:27.063Z,48.52
2018-05-12T18:33:56.291Z,48.91
2018-05-12T18:36:25.684Z,49.15
2018-05-12T18:38:54.890Z,48.96
2018-05-12T18:41:24.113Z,49.55
2018-05-12T18:43:53.305Z,49.80
2018-05-12T18:46:22.574Z,49.79
2018-05-12T18:48:51.865Z,50.12
2018-05-12T18:51:21.815Z,50.34
2018-05-12T18:53:51.053Z,50.22
2018-05-12T18:56:22.037Z,50.58
2018-05-12T18:58:51.259Z,50.61
2018-05-12T19:01:20.525Z,50.78
2018-05-12T19:03:49.769Z,50.63
2018-05-12T19:06:18.991Z,50.82
2018-05-12T19:08:49.961Z,50.75
2018-05-12T19:11:19.163Z,50.59
2018-05-12T19:13:48.395Z,50.81
2018-05-12T19:16:18.409Z,50.79
2018-05-12T19:18:47.678Z,50.92
2018-05-12T19:21:16.938Z,50.96
2018-05-12T19:23:46.186Z,51.34
2018-05-12T19:26:15.453Z,51.66
2018-05-12T19:28:44.752Z,52.04
2018-05-12T19:31:14.149Z,52.16
2018-05-12T19:33:43.418Z,52.55
2018-05-12T19:36:13.402Z,52.97
2018-05-12T19:38:42.630Z,53.26
2018-05-12T19:41:11.832Z,53.30
2018-05-12T19:43:41.161Z,53.43
2018-05-12T19:46:10.329Z,53.56
2018-05-12T19:48:40.335Z,53.88
2018-05-12T19:51:10.400Z,54.15
2018-05-12T19:53:39.612Z,54.36
2018-05-12T19:56:09.858Z,54.46
2018-05-12T19:58:39.125Z,54.69
2018-05-12T20:01:08.391Z,54.67
2018-05-12T20:03:37.616Z,55.10
2018-05-12T20:06:06.850Z,55.12
2018-05-12T20:08:36.133Z,55.30
2018-05-12T20:11:06.130Z,55.46
2018-05-12T20:13:35.361Z,55.80
2018-05-12T20:16:04.655Z,55.93
2018-05-12T20:18:33.818Z,56.21
2018-05-12T20:21:03.027Z,56.42
2018-05-12T20:23:32.267Z,56.73
2018-05-12T20:26:01.511Z,57.03
2018-05-12T20:28:30.807Z,57.23
2018-05-12T20:31:00.032Z,57.32
2018-05-12T20:33:29.253Z,57.74
2018-05-12T20:35:58.496Z,57.02
2018-05-12T20:38:27.746Z,57.24
2018-05-12T20:40:56.986Z,57.39
2018-05-12T20:43:26.199Z,57.01
2018-05-12T20:45:55.443Z,57.16
2018-05-12T20:48:25.511Z,57.44
2018-05-12T20:50:54.737Z,57.60
2018-05-12T20:53:23.988Z,57.95
2018-05-12T20:55:53.957Z,58.21
2018-05-12T20:58:23.175Z,57.24
2018-05-12T21:00:52.410Z,57.64
2018-05-12T21:03:21.646Z,58.12
2018-05-12T21:05:50.905Z,58.24
2018-05-12T21:08:20.326Z,58.58
2018-05-12T21:10:49.563Z,58.88
2018-05-12T21:13:18.776Z,59.01
2018-05-12T21:15:48.777Z,59.17
2018-05-12T21:18:17.995Z,59.06
2018-05-12T21:20:47.221Z,58.92
2018-05-12T21:23:16.455Z,58.94
2018-05-12T21:25:45.791Z,59.64
2018-05-12T21:28:14.995Z,59.55
2018-05-12T21:30:44.235Z,60.21
2018-05-12T21:33:13.483Z,60.28
2018-05-12T21:35:43.491Z,60.39
2018-05-12T21:38:12.704Z,60.68
2018-05-12T21:40:41.966Z,60.32
2018-05-12T21:43:11.165Z,59.61
2018-05-12T21:45:40.387Z,59.44
2018-05-12T21:48:09.610Z,59.56
2018-05-12T21:50:39.598Z,60.17
2018-05-12T21:53:08.830Z,59.84
2018-05-12T21:55:38.077Z,59.79
2018-05-12T21:58:07.294Z,60.39
2018-05-12T22:00:37.288Z,60.50
2018-05-12T22:03:06.520Z,59.84
2018-05-12T22:05:36.510Z,59.95
2018-05-12T22:08:05.734Z,59.40
2018-05-12T22:10:34.945Z,59.83
2018-05-12T22:13:04.172Z,59.98
2018-05-12T22:15:33.417Z,60.97
2018-05-12T22:18:03.397Z,61.08
2018-05-12T22:20:32.626Z,61.43
2018-05-12T22:23:02.678Z,61.41
2018-05-12T22:25:32.619Z,61.73
2018-05-12T22:28:01.953Z,62.00
2018-05-12T22:30:31.184Z,62.12
2018-05-12T22:33:00.409Z,62.21
2018-05-12T22:35:29.618Z,62.24
2018-05-12T22:37:58.890Z,62.31
2018-05-12T22:40:34.989Z,62.61
2018-05-12T22:43:04.239Z,62.53
2018-05-12T22:45:33.494Z,62.33
2018-05-12T22:48:02.740Z,62.67
2018-05-12T22:50:32.002Z,62.44
2018-05-12T22:53:02.011Z,62.41
2018-05-12T22:55:32.081Z,62.64
2018-05-12T22:58:01.322Z,62.31
2018-05-12T23:00:32.275Z,62.48
2018-05-12T23:03:01.504Z,62.38
2018-05-12T23:05:30.762Z,62.63
2018-05-12T23:08:01.166Z,62.97
2018-05-12T23:10:31.396Z,62.94
2018-05-12T23:13:00.622Z,63.02
2018-05-12T23:15:30.624Z,62.67
2018-05-12T23:17:59.883Z,62.81
2018-05-12T23:20:29.122Z,62.70
2018-05-12T23:22:58.413Z,62.76
2018-05-12T23:25:27.629Z,63.05
2018-05-12T23:27:57.650Z,62.96
2018-05-12T23:30:27.695Z,63.00
2018-05-12T23:32:56.951Z,63.07
2018-05-12T23:35:26.219Z,63.61
2018-05-12T23:37:55.481Z,63.59
2018-05-12T23:40:24.801Z,64.07
2018-05-12T23:42:54.025Z,64.45
2018-05-12T23:45:23.297Z,64.31
2018-05-12T23:47:52.545Z,64.35
2018-05-12T23:50:22.698Z,64.00
2018-05-12T23:52:51.919Z,64.23
2018-05-12T23:55:22.072Z,64.14
2018-05-12T23:57:51.285Z,64.42
